Nearby METAR Reports

 

KRYN - Tucson/Ryan Fld, Arizona, USA
Distance from station: SSW 16mi, 26km
Updated: Fri, 23-Feb-2018 7:45pm MST
Clear
Clear
 Wind from W
Wind: W 8 mph , 13 km/h
Temperature: 54°F , 12°C
Dew Point: 30°F , -1°C
Humidity: 41%
Barometer: 30.07 inHg , 1018.3 hPa
Clouds: Clear
Visibility: 10 miles , 16 km
2018/02/24 02:45 KRYN 240245Z 28007KT 10SM CLR 12/M01 A3007 RMK LAST
KTUS - Tucson, Arizona, USA
Distance from station: SSE 18mi, 28km
Updated: Fri, 23-Feb-2018 7:53pm MST
Clear
Clear
 Wind from NW
Wind: NW 15 mph , 24 km/h, Gust: 25 mph , 41 km/h
Temperature: 54°F , 12°C
Dew Point: 27°F , -3°C
Humidity: 35%
Barometer: 30.06 inHg , 1017.9 hPa
Clouds: Clear
Visibility: 10 miles , 16 km
2018/02/24 02:53 KTUS 240253Z 32013G22KT 10SM CLR 12/M03 A3006 RMK AO2 SLP170 T01171028 53024
 
KDMA - Davis/Tucson, Arizona, USA
Distance from station: SE 18mi, 29km
Updated: Fri, 23-Feb-2018 7:58pm MST
Clear
Clear
 Wind from WNW
Wind: WNW 20 mph , 31 km/h, Gust: 25 mph , 41 km/h
Temperature: 50°F , 10°C
Wind Chill: 44°F , 7°C
Dew Point: 27°F , -3°C
Humidity: 40%
Barometer: 30.03 inHg , 1016.9 hPa
Clouds: Clear
Visibility: 10 miles , 16 km
2018/02/24 02:58 KDMA 240258Z AUTO 29017G22KT 10SM CLR 10/M03 A3003 RMK AO2 SLPNO T01001030 52020
KCGZ - Casa Granda, Arizona, USA
Distance from station: NW 57mi, 92km
Updated: Fri, 23-Feb-2018 7:56pm MST

 Wind from NNW
Wind: NNW 7 mph , 11 km/h
Temperature: 52°F , 11°C
Dew Point: 27°F , -3°C
Humidity: 38%
Barometer: 30.08 inHg , 1018.6 hPa
Visibility: 10 miles , 16 km
2018/02/24 02:56 KCGZ 240256Z AUTO 33006KT 10SM 11/M03 A3008 RMK AO2 SLP189 T01061028 53024 $
 
KALK - Pioneer Airfield, Arizona, USA
Distance from station: SE 65mi, 104km
Updated: Fri, 23-Feb-2018 7:56pm MST
Clear
Clear
 Wind from W
Wind: W 16 mph , 26 km/h
Temperature: 45°F , 7°C
Wind Chill: 38°F , 3°C
Dew Point: 16°F , -9°C
Humidity: 31%
Barometer: 30.05 inHg , 1017.6 hPa
Clouds: Clear
Visibility: 10 miles , 16 km
2018/02/24 02:56 KALK 240256Z AUTO 28014KT 10SM CLR 07/M09 A3005 RMK AO2 SLP139 T00671094 53010
KOLS - Nogales, Arizona, USA
Distance from station: S 67mi, 108km
Updated: Fri, 23-Feb-2018 7:54pm MST
Clear
Clear
 Wind from W
Wind: W 7 mph , 11 km/h
Temperature: 46°F , 8°C
Wind Chill: 42°F , 6°C
Dew Point: 19°F , -7°C
Humidity: 34%
Barometer: 30.05 inHg , 1017.6 hPa
Clouds: Clear
Visibility: 10 miles , 16 km
2018/02/24 02:54 KOLS 240254Z AUTO 26006KT 10SM CLR 08/M07 A3005 RMK AO2 SLP162 T00781067 53010
 
KFHU - Fort Huachuca, Arizona, USA
Distance from station: SE 69mi, 110km
Updated: Fri, 23-Feb-2018 8:25pm MST
Clear
Clear
 Wind from W
Wind: W 14 mph , 22 km/h
Temperature: 43°F , 6°C
Wind Chill: 36°F , 2°C
Dew Point: 14°F , -10°C
Humidity: 31%
Barometer: 30.05 inHg , 1017.6 hPa
Clouds: Clear
Visibility: 10 miles , 16 km
2018/02/24 03:25 KFHU 240325Z AUTO 27012KT 10SM CLR 06/M10 A3005 RMK AO2 SLPNO
KIWA - Chandler/Mesa, Arizona, USA
Distance from station: NNW 73mi, 117km
Updated: Fri, 23-Feb-2018 8:47pm MST
Mostly cloudy
Mostly cloudy
 Wind from WNW
Wind: WNW 13 mph , 20 km/h
Temperature: 50°F , 10°C
Wind Chill: 45°F , 7°C
Dew Point: 27°F , -3°C
Humidity: 40%
Barometer: 30.10 inHg , 1019.3 hPa
Clouds: Mostly cloudy
Visibility: 20 miles , 32 km
Cloud details: Mostly cloudy 10000 ft
2018/02/24 03:47 KIWA 240347Z 30011KT 20SM BKN100 10/M03 A3010